Time;durP1;ratioP1;P1;durP2;ratioP2;P2;SDS_P1;SDS_P2;PMS_P1;PMS_P2;Temp;Humidity;BMP_temperature;BMP_pressure;BME280_temperature;BME280_humidity;BME280_pressure;Samples;Min_cycle;Max_cycle;Signal;HPM_P1;HPM_P2
2022/09/04 00:01:43;;;;;;;4.13;3.13;;;20.40;99.90;;;;;;4893486;29;21219;-73
2022/09/04 00:04:16;;;;;;;3.10;2.77;;;20.40;99.90;;;;;;4951593;28;20513;-73
2022/09/04 00:06:55;;;;;;;3.27;2.90;;;20.40;99.90;;;;;;4974391;28;20421;-73
2022/09/04 00:09:32;;;;;;;3.90;3.10;;;20.40;99.90;;;;;;4962615;28;20532;-74
2022/09/04 00:12:10;;;;;;;3.40;2.83;;;20.40;99.90;;;;;;4972477;28;20446;-73
2022/09/04 00:14:48;;;;;;;3.90;2.87;;;20.40;99.90;;;;;;4972878;28;20461;-72
2022/09/04 00:17:34;;;;;;;5.83;3.43;;;20.30;99.90;;;;;;4972712;28;20507;-71
2022/09/04 00:20:18;;;;;;;3.80;3.00;;;20.30;99.90;;;;;;4973797;28;20455;-74
2022/09/04 00:23:05;;;;;;;5.33;2.97;;;20.30;99.90;;;;;;4976078;28;20444;-73
2022/09/04 00:25:56;;;;;;;5.10;3.07;;;20.20;99.90;;;;;;4975912;28;20567;-73
2022/09/04 00:28:24;;;;;;;5.60;3.50;;;20.30;99.90;;;;;;4974117;28;20433;-73
2022/09/04 00:31:16;;;;;;;4.47;2.77;;;20.20;99.90;;;;;;4975663;28;20441;-72
2022/09/04 00:33:53;;;;;;;4.00;2.90;;;20.20;99.90;;;;;;4957714;28;20489;-72
2022/09/04 00:36:23;;;;;;;6.53;3.10;;;20.20;99.90;;;;;;4970523;28;20467;-72
2022/09/04 00:39:07;;;;;;;3.10;2.60;;;20.20;99.90;;;;;;4970395;28;20446;-72
2022/09/04 00:42:06;;;;;;;3.20;2.70;;;20.30;99.90;;;;;;4972863;28;20450;-72
2022/09/04 00:44:48;;;;;;;4.97;3.50;;;20.20;99.90;;;;;;4976237;28;21040;-73
2022/09/04 00:47:38;;;;;;;4.27;3.00;;;20.20;99.90;;;;;;4971562;28;20524;-74
2022/09/04 00:50:27;;;;;;;3.90;3.17;;;20.20;99.90;;;;;;4954247;28;20444;-76
2022/09/04 00:53:19;;;;;;;3.33;3.03;;;20.30;99.90;;;;;;4975260;28;20440;-75
2022/09/04 00:56:32;;;;;;;3.17;2.80;;;20.30;99.90;;;;;;4973263;28;20484;-75
2022/09/04 00:59:25;;;;;;;4.27;3.60;;;20.30;99.90;;;;;;4966708;28;20548;-76
2022/09/04 01:01:55;;;;;;;4.00;3.43;;;20.20;99.90;;;;;;4953564;28;20490;-76
2022/09/04 01:04:51;;;;;;;4.07;3.67;;;20.10;99.90;;;;;;4973144;28;20896;-75
2022/09/04 01:08:06;;;;;;;3.93;3.53;;;20.10;99.90;;;;;;4971618;28;20884;-76
2022/09/04 01:10:44;;;;;;;4.63;3.50;;;20.10;99.90;;;;;;4963510;28;20815;-76
2022/09/04 01:13:30;;;;;;;3.53;3.10;;;20.10;99.90;;;;;;4973325;28;20433;-76
2022/09/04 01:16:09;;;;;;;3.80;3.40;;;20.00;99.90;;;;;;4972973;28;20818;-76
2022/09/04 01:19:03;;;;;;;4.47;3.93;;;20.00;99.90;;;;;;4974556;28;20448;-75
2022/09/04 01:21:56;;;;;;;4.07;3.67;;;20.00;99.90;;;;;;4974866;28;20478;-76
2022/09/04 01:24:40;;;;;;;4.30;3.73;;;19.80;99.90;;;;;;4969493;28;20559;-76
2022/09/04 01:27:30;;;;;;;5.50;3.50;;;19.90;99.90;;;;;;4975737;28;20580;-76
2022/09/04 01:30:07;;;;;;;4.00;3.40;;;19.80;99.90;;;;;;4969306;28;21028;-76
2022/09/04 01:32:53;;;;;;;6.07;3.50;;;19.80;99.90;;;;;;4978155;28;20993;-76
2022/09/04 01:35:31;;;;;;;8.50;3.27;;;19.80;99.90;;;;;;4961450;28;20473;-76
2022/09/04 01:38:19;;;;;;;6.37;3.87;;;19.80;99.90;;;;;;4976117;28;20907;-76
2022/09/04 01:41:12;;;;;;;4.03;3.63;;;19.80;99.90;;;;;;4975693;28;20441;-76
2022/09/04 01:43:39;;;;;;;6.93;3.60;;;19.70;99.90;;;;;;4977603;28;20510;-76
2022/09/04 01:46:26;;;;;;;4.10;3.70;;;19.70;99.90;;;;;;4973403;28;20450;-76
2022/09/04 01:49:09;;;;;;;4.70;4.20;;;19.70;99.90;;;;;;4977813;28;20439;-74
2022/09/04 01:51:56;;;;;;;4.10;3.70;;;19.60;99.90;;;;;;4977739;28;20856;-74
2022/09/04 01:54:52;;;;;;;4.00;3.43;;;19.70;99.90;;;;;;4978659;28;20491;-74
2022/09/04 01:57:43;;;;;;;4.30;3.60;;;19.70;99.90;;;;;;4977360;28;20441;-74
2022/09/04 02:00:15;;;;;;;6.67;3.67;;;19.60;99.90;;;;;;4974143;28;20440;-74
2022/09/04 02:03:21;;;;;;;4.10;3.63;;;19.60;99.90;;;;;;4976923;28;20436;-76
2022/09/04 02:05:55;;;;;;;5.00;3.40;;;19.70;99.90;;;;;;4972802;28;21078;-76
2022/09/04 02:08:30;;;;;;;6.00;3.10;;;19.70;99.90;;;;;;4976520;28;20447;-76
2022/09/04 02:11:07;;;;;;;4.13;3.73;;;19.70;99.90;;;;;;4978686;28;20432;-76
2022/09/04 02:13:45;;;;;;;4.50;3.57;;;19.70;99.90;;;;;;4974108;28;20923;-76
2022/09/04 02:16:19;;;;;;;4.33;3.43;;;19.70;99.90;;;;;;4976774;28;20960;-75
2022/09/04 02:19:21;;;;;;;4.07;3.50;;;19.60;99.90;;;;;;4975517;28;20438;-75
2022/09/04 02:21:55;;;;;;;3.93;3.40;;;19.60;99.90;;;;;;4967332;28;20441;-76
2022/09/04 02:24:29;;;;;;;5.83;3.70;;;19.60;99.90;;;;;;4977240;28;20579;-77
2022/09/04 02:27:06;;;;;;;4.20;3.27;;;19.60;99.90;;;;;;4974424;28;20479;-76
2022/09/04 02:30:07;;;;;;;4.20;3.63;;;19.60;99.90;;;;;;4973291;28;20444;-75
2022/09/04 02:32:50;;;;;;;3.87;3.43;;;19.60;99.90;;;;;;4978585;28;20441;-75
2022/09/04 02:35:28;;;;;;;6.77;3.17;;;19.60;99.90;;;;;;4976728;28;20552;-75
2022/09/04 02:38:15;;;;;;;5.47;3.20;;;19.60;99.90;;;;;;4977696;28;20491;-74
2022/09/04 02:40:51;;;;;;;5.07;3.80;;;19.50;99.90;;;;;;4973338;28;20837;-75
2022/09/04 02:43:53;;;;;;;4.20;3.23;;;19.50;99.90;;;;;;4961875;28;20476;-75
2022/09/04 02:46:56;;;;;;;4.07;3.00;;;19.50;99.90;;;;;;4960499;28;21004;-75
2022/09/04 02:49:23;;;;;;;4.00;3.60;;;19.50;99.90;;;;;;4974519;28;20476;-75
2022/09/04 02:51:53;;;;;;;3.97;3.30;;;19.50;99.90;;;;;;4976419;28;21251;-75
2022/09/04 02:54:47;;;;;;;5.00;4.20;;;19.40;99.90;;;;;;4978966;28;20887;-75
2022/09/04 02:57:38;;;;;;;3.90;3.50;;;19.50;99.90;;;;;;4974341;28;20472;-76
2022/09/04 03:00:18;;;;;;;3.80;3.27;;;19.40;99.90;;;;;;4977954;28;20459;-75
2022/09/04 03:03:31;;;;;;;3.50;2.90;;;19.40;99.90;;;;;;4972610;28;20449;-75
2022/09/04 03:06:31;;;;;;;6.53;3.87;;;19.40;99.90;;;;;;4965887;28;20500;-75
2022/09/04 03:09:03;;;;;;;8.63;3.50;;;19.40;99.90;;;;;;4959787;28;20821;-75
2022/09/04 03:11:44;;;;;;;5.03;3.53;;;19.30;99.90;;;;;;4975744;28;20962;-76
2022/09/04 03:14:33;;;;;;;4.00;3.60;;;19.30;99.90;;;;;;4977572;28;20482;-75
2022/09/04 03:17:48;;;;;;;3.80;3.40;;;19.20;99.90;;;;;;4974585;28;20459;-75
2022/09/04 03:20:20;;;;;;;5.03;3.37;;;19.20;99.90;;;;;;4944408;28;20547;-76
2022/09/04 03:22:58;;;;;;;4.00;3.60;;;19.20;99.90;;;;;;4971753;28;20457;-76
2022/09/04 03:25:47;;;;;;;5.90;3.60;;;19.30;99.90;;;;;;4975741;28;20462;-76
2022/09/04 03:28:45;;;;;;;3.70;3.03;;;19.30;99.90;;;;;;4977722;28;20512;-76
2022/09/04 03:31:33;;;;;;;5.13;3.30;;;19.30;99.90;;;;;;4960016;28;20508;-75
2022/09/04 03:34:17;;;;;;;4.53;3.17;;;19.30;99.90;;;;;;4977041;28;20477;-75
2022/09/04 03:36:49;;;;;;;3.73;3.23;;;19.30;99.90;;;;;;4974076;28;20444;-75
2022/09/04 03:39:34;;;;;;;3.67;3.33;;;19.30;99.90;;;;;;4974594;28;20447;-75
2022/09/04 03:42:15;;;;;;;3.33;3.03;;;19.30;99.90;;;;;;4962632;28;20452;-75
2022/09/04 03:45:15;;;;;;;3.80;3.40;;;19.40;99.90;;;;;;4976555;28;20488;-75
2022/09/04 03:47:59;;;;;;;4.00;3.33;;;19.30;99.90;;;;;;4976744;28;20413;-75
2022/09/04 03:50:55;;;;;;;4.77;3.73;;;19.40;99.90;;;;;;4974694;28;20429;-75
2022/09/04 03:53:25;;;;;;;3.73;3.37;;;19.30;99.90;;;;;;4953743;28;20452;-76
2022/09/04 03:56:11;;;;;;;5.73;4.00;;;19.30;99.90;;;;;;4974753;28;20469;-76
2022/09/04 03:58:56;;;;;;;4.17;3.40;;;19.20;99.90;;;;;;4959723;28;20437;-76
2022/09/04 04:01:55;;;;;;;4.23;3.80;;;19.20;99.90;;;;;;4975651;28;20487;-77
2022/09/04 04:05:03;;;;;;;6.63;3.70;;;19.10;99.90;;;;;;4972972;28;20473;-76
2022/09/04 04:07:51;;;;;;;7.03;3.70;;;19.00;99.90;;;;;;4968011;28;20449;-75
2022/09/04 04:10:32;;;;;;;3.83;3.43;;;18.80;99.90;;;;;;4973702;28;20438;-75
2022/09/04 04:13:25;;;;;;;3.60;2.97;;;18.80;99.90;;;;;;4959995;28;20444;-75
2022/09/04 04:16:12;;;;;;;4.53;4.13;;;18.90;99.90;;;;;;4975286;28;20979;-75
2022/09/04 04:18:54;;;;;;;4.43;3.60;;;18.90;99.90;;;;;;4972787;28;20436;-76
2022/09/04 04:21:54;;;;;;;5.43;3.53;;;18.80;99.90;;;;;;4975165;28;20432;-76
2022/09/04 04:24:57;;;;;;;4.37;3.80;;;18.80;99.90;;;;;;4973427;28;21415;-76
2022/09/04 04:27:52;;;;;;;9.30;4.00;;;18.80;99.90;;;;;;4962349;28;20448;-76
2022/09/04 04:30:18;;;;;;;3.80;3.50;;;18.80;99.90;;;;;;4972294;28;20430;-76
2022/09/04 04:33:06;;;;;;;8.37;4.03;;;18.90;99.90;;;;;;4954799;28;20444;-76
2022/09/04 04:35:53;;;;;;;7.23;3.87;;;18.90;99.90;;;;;;4972155;28;20461;-76
2022/09/04 04:38:52;;;;;;;5.00;2.90;;;18.90;99.90;;;;;;4974446;28;20437;-75
2022/09/04 04:48:13;;;;;;;4.03;3.63;;;18.90;99.90;;;;;;4974650;28;20472;-75
2022/09/04 04:51:17;;;;;;;3.90;3.50;;;18.90;99.90;;;;;;4971293;28;20441;-75
2022/09/04 04:54:18;;;;;;;3.73;3.17;;;18.90;99.90;;;;;;4974968;28;20456;-75
2022/09/04 04:57:04;;;;;;;4.10;3.70;;;18.80;99.90;;;;;;4970980;28;20536;-76
2022/09/04 04:59:53;;;;;;;5.17;3.70;;;18.90;99.90;;;;;;4971981;28;20477;-75
2022/09/04 05:02:54;;;;;;;4.17;3.50;;;18.80;99.90;;;;;;4971966;28;20466;-75
2022/09/04 05:05:39;;;;;;;4.10;3.50;;;18.80;99.90;;;;;;4976398;28;20475;-75
2022/09/04 05:08:17;;;;;;;5.40;3.77;;;18.80;99.90;;;;;;4971694;28;20477;-74
2022/09/04 05:10:49;;;;;;;3.63;3.10;;;18.80;99.90;;;;;;4974746;28;20509;-74
2022/09/04 05:13:29;;;;;;;4.57;3.33;;;18.80;99.90;;;;;;4973681;28;20528;-73
2022/09/04 05:16:06;;;;;;;5.03;3.70;;;18.80;99.90;;;;;;4971871;28;20452;-73
2022/09/04 05:18:39;;;;;;;3.60;2.73;;;18.70;99.90;;;;;;4973057;28;20432;-73
2022/09/04 05:21:26;;;;;;;5.33;3.50;;;18.60;99.90;;;;;;4973960;28;20476;-72
2022/09/04 05:24:09;;;;;;;3.97;3.60;;;18.60;99.90;;;;;;4973445;28;20476;-73
2022/09/04 05:26:37;;;;;;;3.67;3.37;;;18.50;99.90;;;;;;4974852;28;20472;-73
2022/09/04 05:29:38;;;;;;;4.73;3.47;;;18.50;99.90;;;;;;4972921;28;20453;-75
2022/09/04 05:32:25;;;;;;;4.73;3.30;;;18.60;99.90;;;;;;4973693;28;20822;-76
2022/09/04 05:34:50;;;;;;;5.23;3.73;;;18.50;99.90;;;;;;4969488;28;20536;-74
2022/09/04 05:37:28;;;;;;;4.40;3.80;;;18.50;99.90;;;;;;4973708;28;20452;-75
2022/09/04 05:40:23;;;;;;;4.13;3.70;;;18.60;99.90;;;;;;4971389;28;20531;-75
2022/09/04 05:42:52;;;;;;;6.20;4.37;;;18.60;99.90;;;;;;4933543;28;20532;-75
2022/09/04 05:45:22;;;;;;;5.40;4.30;;;18.70;99.90;;;;;;4968815;28;20507;-75
2022/09/04 05:48:02;;;;;;;6.80;4.10;;;18.70;99.90;;;;;;4976251;28;20436;-75
2022/09/04 05:51:02;;;;;;;4.07;3.67;;;18.60;99.90;;;;;;4976143;28;20437;-74
2022/09/04 05:54:06;;;;;;;4.40;4.00;;;18.70;99.90;;;;;;4956390;28;20990;-73
2022/09/04 05:56:43;;;;;;;5.17;3.83;;;18.60;99.90;;;;;;4940118;28;20467;-74
2022/09/04 05:59:26;;;;;;;4.37;3.93;;;18.60;99.90;;;;;;4971389;28;20433;-74
2022/09/04 06:02:19;;;;;;;7.90;4.07;;;18.50;99.90;;;;;;4972484;28;20835;-74
2022/09/04 06:05:12;;;;;;;5.47;4.23;;;18.50;99.90;;;;;;4973256;28;20477;-74
2022/09/04 06:08:04;;;;;;;4.70;4.20;;;18.60;99.90;;;;;;4969049;28;20438;-75
2022/09/04 06:10:41;;;;;;;5.73;4.60;;;18.70;99.90;;;;;;4957642;28;21343;-75
2022/09/04 06:13:40;;;;;;;5.70;4.07;;;18.70;99.90;;;;;;4972579;28;20887;-74
2022/09/04 06:16:27;;;;;;;6.80;4.70;;;18.70;99.90;;;;;;4973101;28;20445;-74
2022/09/04 06:19:05;;;;;;;4.90;4.40;;;18.70;99.90;;;;;;4975109;28;20436;-74
2022/09/04 06:22:08;;;;;;;5.10;4.60;;;18.80;99.90;;;;;;4973801;28;20467;-74
2022/09/04 06:24:53;;;;;;;5.10;4.60;;;18.80;99.90;;;;;;4971642;28;20912;-74
2022/09/04 06:27:47;;;;;;;5.43;4.63;;;18.80;99.90;;;;;;4974643;28;20771;-77
2022/09/04 06:30:15;;;;;;;5.70;4.50;;;18.80;99.90;;;;;;4970596;28;20903;-75
2022/09/04 06:33:10;;;;;;;14.33;12.87;;;18.80;99.90;;;;;;4973536;28;20437;-75
2022/09/04 06:35:54;;;;;;;4.47;4.03;;;18.90;99.90;;;;;;4974123;28;20472;-75
2022/09/04 06:38:48;;;;;;;5.57;4.23;;;18.90;99.90;;;;;;4972153;28;20464;-75
2022/09/04 06:41:40;;;;;;;7.87;7.07;;;19.10;99.90;;;;;;4976915;28;20425;-75
2022/09/04 06:44:33;;;;;;;7.30;4.20;;;19.10;99.90;;;;;;4963909;28;20927;-75
2022/09/04 06:47:25;;;;;;;6.03;4.93;;;19.20;99.90;;;;;;4972821;28;20457;-75
2022/09/04 06:50:18;;;;;;;7.23;4.70;;;19.30;99.90;;;;;;4974234;28;20969;-76
2022/09/04 06:52:55;;;;;;;5.97;4.70;;;19.20;99.90;;;;;;4976738;28;20446;-76
2022/09/04 06:55:31;;;;;;;4.73;4.23;;;19.20;99.90;;;;;;4976794;28;20464;-76
2022/09/04 06:58:05;;;;;;;8.47;5.17;;;19.20;99.90;;;;;;4973389;28;20466;-75
2022/09/04 07:00:53;;;;;;;5.47;4.93;;;19.40;99.90;;;;;;4976357;28;20502;-75
2022/09/04 07:03:33;;;;;;;6.73;5.50;;;19.50;99.90;;;;;;4978081;28;20483;-75
2022/09/04 07:06:47;;;;;;;8.97;5.60;;;19.50;99.90;;;;;;4977225;28;20468;-75
2022/09/04 07:09:27;;;;;;;4.97;4.47;;;19.60;99.90;;;;;;4976848;28;20437;-77
2022/09/04 07:11:59;;;;;;;6.47;5.30;;;19.70;99.90;;;;;;4977153;28;21010;-76
2022/09/04 07:14:58;;;;;;;5.70;5.00;;;19.60;99.90;;;;;;4976261;28;20468;-76
2022/09/04 07:17:55;;;;;;;5.87;5.27;;;19.50;99.90;;;;;;4976801;28;20473;-76
2022/09/04 07:20:36;;;;;;;5.60;5.10;;;19.70;99.90;;;;;;4975101;28;20481;-77
2022/09/04 07:23:37;;;;;;;6.67;5.07;;;19.80;99.90;;;;;;4977651;28;20465;-76
2022/09/04 07:26:25;;;;;;;6.10;4.93;;;19.80;99.90;;;;;;4973928;28;20564;-76
2022/09/04 07:29:24;;;;;;;8.30;5.10;;;19.90;99.90;;;;;;4975991;28;20433;-76
2022/09/04 07:32:02;;;;;;;6.10;4.70;;;20.00;99.90;;;;;;4975608;28;20434;-76
2022/09/04 07:34:59;;;;;;;6.30;5.43;;;19.90;99.90;;;;;;4975048;28;20479;-75
2022/09/04 07:37:49;;;;;;;14.23;5.33;;;20.00;99.90;;;;;;4975389;28;20561;-77
2022/09/04 07:40:40;;;;;;;7.27;4.57;;;20.20;99.90;;;;;;4973750;28;20483;-76
2022/09/04 07:43:20;;;;;;;4.97;4.53;;;20.10;99.90;;;;;;4964801;28;20456;-76
2022/09/04 07:45:52;;;;;;;5.23;4.73;;;20.20;99.90;;;;;;4973213;28;20426;-76
2022/09/04 07:48:42;;;;;;;5.07;4.57;;;20.20;99.90;;;;;;4968386;28;20962;-76
2022/09/04 07:51:15;;;;;;;7.10;4.70;;;20.30;99.90;;;;;;4971682;28;20834;-76
2022/09/04 07:53:43;;;;;;;5.23;4.27;;;20.40;99.90;;;;;;4966555;28;20469;-76
2022/09/04 07:56:12;;;;;;;4.43;4.03;;;20.50;99.90;;;;;;4970134;28;20551;-76
2022/09/04 07:58:48;;;;;;;5.20;4.73;;;20.60;99.90;;;;;;4969141;28;20438;-76
2022/09/04 08:01:22;;;;;;;5.07;3.90;;;20.60;99.90;;;;;;4968249;28;20483;-76
2022/09/04 08:03:50;;;;;;;4.30;3.90;;;20.80;99.90;;;;;;4967181;28;20508;-76
2022/09/04 08:06:29;;;;;;;6.80;5.00;;;20.80;99.90;;;;;;4973083;28;20437;-75
2022/09/04 08:09:12;;;;;;;4.90;3.97;;;20.80;99.90;;;;;;4969472;28;20512;-74
2022/09/04 08:11:48;;;;;;;4.20;3.70;;;21.00;99.90;;;;;;4973531;28;20576;-74
2022/09/04 08:14:26;;;;;;;9.00;3.90;;;21.10;99.90;;;;;;4968359;28;20458;-73
2022/09/04 08:16:58;;;;;;;6.17;4.30;;;21.20;99.90;;;;;;4970541;28;20445;-73
2022/09/04 08:19:39;;;;;;;5.20;4.10;;;21.30;99.90;;;;;;4970013;28;20555;-73
2022/09/04 08:22:08;;;;;;;5.30;4.13;;;21.30;99.90;;;;;;4959889;28;21187;-73
2022/09/04 08:24:58;;;;;;;4.73;3.93;;;21.30;99.90;;;;;;4967547;28;20580;-73
2022/09/04 08:27:50;;;;;;;5.20;3.83;;;21.40;99.90;;;;;;4970155;28;20439;-77
2022/09/04 08:30:20;;;;;;;6.63;4.10;;;21.50;99.90;;;;;;4973642;28;20500;-77
2022/09/04 08:33:30;;;;;;;4.70;4.23;;;21.70;99.90;;;;;;4971980;28;20426;-75
2022/09/04 08:35:59;;;;;;;4.87;3.93;;;21.80;99.90;;;;;;4973601;28;21139;-73
2022/09/04 08:38:33;;;;;;;4.87;4.13;;;21.80;99.90;;;;;;4972184;28;20527;-74
2022/09/04 08:41:17;;;;;;;4.97;3.67;;;21.80;99.90;;;;;;4973579;28;20428;-73
2022/09/04 08:44:10;;;;;;;4.00;3.60;;;21.80;99.90;;;;;;4970900;28;20468;-72
2022/09/04 08:47:04;;;;;;;3.90;3.50;;;22.00;99.90;;;;;;4971556;28;21133;-73
2022/09/04 08:50:00;;;;;;;6.00;3.50;;;22.10;99.90;;;;;;4968165;28;20434;-72
2022/09/04 08:52:41;;;;;;;5.73;4.80;;;22.00;99.90;;;;;;4970036;28;20513;-75
2022/09/04 08:55:44;;;;;;;5.10;4.30;;;22.10;99.90;;;;;;4969405;28;20456;-76
2022/09/04 08:58:51;;;;;;;3.60;3.30;;;22.10;99.90;;;;;;4941188;28;20454;-76
2022/09/04 09:01:35;;;;;;;5.47;4.50;;;22.10;99.90;;;;;;4954924;28;20437;-74
2022/09/04 09:04:32;;;;;;;4.70;3.80;;;22.20;99.90;;;;;;4961274;28;20476;-75
2022/09/04 09:07:16;;;;;;;4.23;3.60;;;22.40;99.90;;;;;;4973464;28;20432;-78
2022/09/04 09:10:08;;;;;;;4.83;3.20;;;22.50;99.90;;;;;;4975003;28;20445;-77
2022/09/04 09:13:07;;;;;;;3.70;3.37;;;22.50;99.90;;;;;;4970645;28;20992;-76
2022/09/04 09:15:36;;;;;;;3.90;3.60;;;22.60;99.90;;;;;;4969944;28;20480;-74
2022/09/04 09:18:22;;;;;;;5.17;3.93;;;22.60;99.90;;;;;;4967386;28;20491;-76
2022/09/04 09:20:59;;;;;;;4.17;3.60;;;22.70;99.90;;;;;;4975575;28;20429;-76
2022/09/04 09:23:43;;;;;;;7.53;4.50;;;22.70;99.90;;;;;;4969163;28;20486;-77
2022/09/04 09:26:25;;;;;;;3.53;3.23;;;22.80;99.90;;;;;;4969635;28;21163;-78
2022/09/04 09:29:13;;;;;;;3.57;3.27;;;22.70;99.90;;;;;;4970368;28;20491;-75
2022/09/04 09:32:14;;;;;;;3.90;3.50;;;22.80;99.90;;;;;;4969925;28;20432;-77
2022/09/04 09:34:58;;;;;;;5.37;3.27;;;22.90;99.90;;;;;;4953221;28;20484;-71
2022/09/04 09:37:33;;;;;;;4.47;3.13;;;23.00;99.90;;;;;;4966343;28;20459;-72
2022/09/04 09:40:25;;;;;;;3.67;3.37;;;23.20;99.90;;;;;;4969611;28;20875;-76
2022/09/04 09:43:15;;;;;;;7.17;6.47;;;23.20;99.90;;;;;;4972406;28;20432;-75
2022/09/04 09:46:02;;;;;;;3.83;3.43;;;23.10;99.90;;;;;;4971634;28;20453;-74
2022/09/04 09:48:57;;;;;;;5.70;4.00;;;23.20;99.90;;;;;;4971459;28;20452;-73
2022/09/04 09:52:01;;;;;;;3.57;3.27;;;23.20;99.90;;;;;;4952169;28;20457;-75
2022/09/04 09:54:58;;;;;;;4.70;3.67;;;23.30;99.90;;;;;;4970307;28;20472;-74
2022/09/04 09:57:43;;;;;;;3.43;3.10;;;23.40;99.90;;;;;;4971264;28;21164;-72
2022/09/04 10:00:11;;;;;;;4.00;3.60;;;23.50;99.90;;;;;;4955590;28;20973;-72
2022/09/04 10:02:58;;;;;;;3.90;3.13;;;23.60;99.90;;;;;;4969258;28;20441;-72
2022/09/04 10:05:39;;;;;;;3.50;2.97;;;23.60;99.90;;;;;;4971428;28;20477;-76
2022/09/04 10:08:38;;;;;;;4.20;3.43;;;23.60;99.90;;;;;;4970379;28;20432;-77
2022/09/04 10:11:38;;;;;;;4.23;3.10;;;23.70;99.90;;;;;;4978779;28;21215;-78
2022/09/04 10:14:06;;;;;;;4.10;3.67;;;23.60;99.90;;;;;;4973370;28;20464;-75
2022/09/04 10:16:56;;;;;;;3.73;2.93;;;23.60;99.90;;;;;;4975067;28;21033;-74
2022/09/04 10:20:04;;;;;;;3.33;3.00;;;23.80;99.90;;;;;;4971179;28;20468;-72
2022/09/04 10:23:12;;;;;;;3.00;2.70;;;23.90;99.90;;;;;;4973214;28;20445;-77
2022/09/04 10:25:59;;;;;;;4.13;2.97;;;23.90;99.90;;;;;;4964963;28;21161;-71
2022/09/04 10:28:46;;;;;;;4.00;3.50;;;23.90;99.90;;;;;;4953391;28;20443;-72
2022/09/04 10:31:37;;;;;;;5.60;3.00;;;24.00;99.90;;;;;;4965889;28;20437;-72
2022/09/04 10:34:15;;;;;;;5.73;3.23;;;24.10;99.90;;;;;;4970401;28;20969;-71
2022/09/04 10:36:52;;;;;;;3.10;2.80;;;24.20;99.90;;;;;;4974843;28;20543;-71
2022/09/04 10:42:43;;;;;;;3.13;2.80;;;24.30;99.90;;;;;;4975022;28;22332;-72
2022/09/04 10:45:36;;;;;;;2.50;2.30;;;24.30;99.90;;;;;;4974896;28;20477;-71
2022/09/04 10:48:17;;;;;;;3.13;2.80;;;24.30;99.90;;;;;;4970271;28;20532;-71
2022/09/04 10:51:01;;;;;;;3.27;2.43;;;24.40;99.90;;;;;;4951449;28;20446;-72
2022/09/04 10:53:35;;;;;;;3.13;2.83;;;24.60;99.90;;;;;;4972292;28;20632;-72
2022/09/04 10:56:17;;;;;;;4.80;2.87;;;24.60;99.90;;;;;;4971159;28;20472;-72
2022/09/04 10:58:55;;;;;;;2.80;2.50;;;24.60;99.90;;;;;;4968622;28;20437;-72
2022/09/04 11:01:20;;;;;;;5.43;2.47;;;24.70;99.90;;;;;;4969014;28;20529;-72
2022/09/04 11:04:16;;;;;;;3.17;2.80;;;24.60;99.90;;;;;;4967107;28;20465;-71
2022/09/04 11:07:08;;;;;;;4.00;2.80;;;24.80;99.90;;;;;;4964932;28;20273;-71
2022/09/04 11:09:46;;;;;;;2.90;2.60;;;24.90;99.90;;;;;;4962057;28;20928;-71
2022/09/04 11:12:33;;;;;;;4.73;2.70;;;24.90;99.90;;;;;;4966325;28;20449;-72
2022/09/04 11:15:17;;;;;;;3.00;2.70;;;24.90;99.90;;;;;;4972797;28;20474;-72
2022/09/04 11:17:57;;;;;;;5.50;4.13;;;25.10;99.90;;;;;;4970476;28;21225;-72
2022/09/04 11:20:43;;;;;;;3.13;2.83;;;25.20;99.90;;;;;;4968250;28;20433;-72
2022/09/04 11:23:28;;;;;;;5.10;4.47;;;25.20;99.90;;;;;;4969354;28;20451;-72
2022/09/04 11:26:34;;;;;;;4.20;2.90;;;25.20;99.90;;;;;;4972066;28;20466;-74
2022/09/04 11:29:02;;;;;;;3.60;3.27;;;25.30;99.90;;;;;;4945033;28;20520;-75
2022/09/04 11:32:01;;;;;;;2.50;2.30;;;25.50;99.90;;;;;;4966549;28;20507;-77
2022/09/04 11:35:05;;;;;;;2.77;2.57;;;25.50;99.90;;;;;;4971305;28;20574;-75
2022/09/04 11:37:55;;;;;;;2.83;2.40;;;25.50;99.90;;;;;;4974438;28;20504;-77
2022/09/04 11:40:45;;;;;;;3.27;2.90;;;25.70;99.90;;;;;;4971680;28;20946;-79
2022/09/04 11:43:41;;;;;;;3.00;2.70;;;25.80;99.90;;;;;;4955244;28;20437;-78
2022/09/04 11:46:32;;;;;;;4.50;3.13;;;25.80;99.90;;;;;;4971217;28;20444;-77
2022/09/04 11:49:43;;;;;;;4.63;3.47;;;25.80;99.90;;;;;;4971113;28;20449;-77
2022/09/04 11:52:14;;;;;;;3.07;2.70;;;25.80;99.90;;;;;;4948157;28;20499;-76
2022/09/04 11:54:58;;;;;;;3.27;2.37;;;26.10;99.90;;;;;;4973304;28;20869;-75
2022/09/04 11:57:56;;;;;;;3.13;2.83;;;26.30;99.00;;;;;;4962772;28;20448;-75
2022/09/04 12:00:22;;;;;;;2.60;2.40;;;26.30;98.20;;;;;;4971132;28;20579;-75
2022/09/04 12:03:15;;;;;;;3.53;3.10;;;26.80;97.10;;;;;;4955078;28;20441;-75
2022/09/04 12:05:55;;;;;;;2.83;2.50;;;27.40;96.20;;;;;;4966756;28;20186;-77
2022/09/04 12:08:48;;;;;;;4.70;2.60;;;28.00;94.10;;;;;;4967303;28;20429;-75
2022/09/04 12:11:20;;;;;;;2.60;2.40;;;28.70;92.90;;;;;;4954849;28;20447;-76
2022/09/04 12:14:07;;;;;;;3.33;3.03;;;29.20;90.80;;;;;;4967111;28;20464;-74
2022/09/04 12:17:09;;;;;;;6.40;2.63;;;29.80;87.10;;;;;;4970505;28;20468;-75
2022/09/04 12:20:00;;;;;;;3.63;2.50;;;30.00;82.90;;;;;;4968553;28;20976;-77
2022/09/04 12:22:30;;;;;;;4.03;2.83;;;30.50;79.00;;;;;;4967967;28;20804;-80
2022/09/04 12:25:16;;;;;;;2.93;2.63;;;30.70;76.10;;;;;;4968135;28;21519;-77
2022/09/04 12:28:18;;;;;;;3.63;2.30;;;31.10;74.40;;;;;;4973624;28;20697;-78
2022/09/04 12:31:11;;;;;;;2.70;2.50;;;31.20;71.60;;;;;;4972398;28;20436;-79
2022/09/04 12:33:49;;;;;;;4.43;2.93;;;31.60;71.80;;;;;;4970704;28;20469;-77
2022/09/04 12:36:53;;;;;;;3.20;2.87;;;31.80;71.10;;;;;;4974357;28;20439;-77
2022/09/04 12:39:30;;;;;;;3.03;2.83;;;32.30;69.60;;;;;;4956056;28;20496;-77
2022/09/04 12:42:08;;;;;;;3.83;2.70;;;32.20;67.60;;;;;;4975346;28;20472;-77
2022/09/04 12:44:51;;;;;;;4.37;2.90;;;32.00;65.10;;;;;;4974156;28;20847;-76
2022/09/04 12:47:31;;;;;;;2.70;2.50;;;32.20;66.80;;;;;;4970796;28;20783;-84
2022/09/04 12:50:03;;;;;;;2.70;2.50;;;32.20;65.40;;;;;;4972641;28;20534;-72
2022/09/04 12:53:07;;;;;;;3.27;2.57;;;32.50;64.30;;;;;;4971854;28;20441;-73
2022/09/04 12:55:44;;;;;;;3.20;2.40;;;32.50;59.70;;;;;;4971458;28;20965;-74
2022/09/04 12:58:41;;;;;;;2.43;2.23;;;32.60;56.80;;;;;;4967726;28;20423;-76
2022/09/04 13:01:35;;;;;;;2.67;2.43;;;32.40;57.10;;;;;;4958418;28;20584;-73
2022/09/04 13:04:21;;;;;;;3.03;2.60;;;32.20;55.40;;;;;;4969186;28;20513;-75
2022/09/04 13:07:21;;;;;;;2.80;2.60;;;32.50;57.20;;;;;;4965715;28;20411;-72
2022/09/04 13:10:05;;;;;;;3.20;2.50;;;32.20;56.80;;;;;;4967412;28;20440;-75
2022/09/04 13:13:03;;;;;;;3.03;2.73;;;32.30;56.40;;;;;;4973161;28;20512;-76
2022/09/04 13:15:44;;;;;;;3.00;2.30;;;32.90;55.30;;;;;;4971452;28;20499;-75
2022/09/04 13:18:36;;;;;;;2.50;2.30;;;33.40;54.90;;;;;;4968991;28;20475;-74
2022/09/04 13:21:05;;;;;;;2.97;2.60;;;34.20;54.20;;;;;;4972392;28;20461;-75
2022/09/04 13:23:41;;;;;;;2.57;2.30;;;35.10;52.70;;;;;;4977642;28;20461;-72
2022/09/04 13:26:35;;;;;;;4.00;2.60;;;35.50;51.40;;;;;;4977125;28;20435;-71
2022/09/04 13:29:29;;;;;;;3.43;2.97;;;35.80;51.40;;;;;;4979485;28;20416;-71
2022/09/04 13:32:30;;;;;;;2.80;2.60;;;36.30;50.60;;;;;;4981599;28;20988;-71
2022/09/04 13:35:16;;;;;;;3.07;2.77;;;36.50;49.70;;;;;;4976743;28;20482;-71
2022/09/04 13:37:55;;;;;;;2.60;2.40;;;35.80;49.10;;;;;;4979066;28;20819;-71
2022/09/04 13:40:43;;;;;;;2.60;2.40;;;35.90;47.80;;;;;;4964179;28;20495;-71
2022/09/04 13:43:48;;;;;;;3.13;2.37;;;36.60;47.50;;;;;;4979669;28;20430;-71
2022/09/04 13:46:28;;;;;;;3.20;2.90;;;36.90;47.00;;;;;;4962825;28;20578;-71
2022/09/04 13:49:05;;;;;;;2.37;2.10;;;37.50;45.10;;;;;;4979854;28;20415;-71
2022/09/04 13:51:43;;;;;;;2.90;2.70;;;37.40;44.00;;;;;;4980350;28;20894;-71
2022/09/04 13:54:35;;;;;;;2.77;2.53;;;37.80;43.90;;;;;;4982442;28;20425;-71
2022/09/04 13:57:12;;;;;;;2.73;2.30;;;37.70;43.10;;;;;;4970938;28;20452;-71
2022/09/04 13:59:40;;;;;;;2.70;2.50;;;37.90;43.90;;;;;;4979662;28;20412;-71
2022/09/04 14:02:11;;;;;;;2.90;2.60;;;38.60;42.70;;;;;;4965084;28;21279;-73
2022/09/04 14:04:42;;;;;;;2.90;2.60;;;39.10;41.00;;;;;;4979678;28;20574;-72
2022/09/04 14:07:28;;;;;;;2.53;2.33;;;39.70;40.20;;;;;;4979954;28;20528;-73
2022/09/04 14:09:58;;;;;;;3.20;3.00;;;40.10;39.70;;;;;;4980237;28;20457;-73
2022/09/04 14:13:05;;;;;;;4.43;2.40;;;41.00;39.10;;;;;;4982615;28;20443;-72
2022/09/04 14:16:02;;;;;;;2.87;2.67;;;42.30;37.70;;;;;;4975689;28;20445;-73
2022/09/04 14:18:58;;;;;;;2.60;2.40;;;43.50;35.70;;;;;;4976802;28;20445;-70
2022/09/04 14:21:54;;;;;;;2.70;2.50;;;44.10;33.60;;;;;;4975810;28;20425;-70
2022/09/04 14:24:37;;;;;;;2.60;2.40;;;44.60;32.40;;;;;;4979092;28;21006;-71
2022/09/04 14:27:14;;;;;;;3.83;2.73;;;42.80;31.10;;;;;;4975615;28;20693;-72
2022/09/04 14:29:53;;;;;;;2.60;2.40;;;42.70;32.20;;;;;;4981142;28;20421;-71
2022/09/04 14:32:31;;;;;;;2.60;2.40;;;43.00;33.00;;;;;;4984022;28;20451;-71